Hassan, Minnesota
Current Conditions -  °F | °C
As of 7:07 AM on Friday 28 Nov 2014 (Local Time) from KMIC Reporting Station
Overcast Overcast  
Wind Chill:   Ceiling: 2600
Heat Index: 15°   Visibility: 10mi
Dew Point:   Wind: 7mph
Humidity: 74%   Direction: 120°ESE
Pressure: 30.01"   Gusts: NA
Location:  45.1964°N, 93.4758°W
Report Text: KMIC 281307Z 12006KT 10SM BKN026 OVC080 M09/M13 A3001 RMK AO2 T10941133
Loading
Personal Weather Stations






























Interactive Weather Map New forecast layout! Learn more

10-Day Weather Forecast

Advertisements
Track Severe Weather on mobile